Time;durP1;ratioP1;P1;durP2;ratioP2;P2;SDS_P1;SDS_P2;PMS_P1;PMS_P2;Temp;Humidity;BMP_temperature;BMP_pressure;BME280_temperature;BME280_humidity;BME280_pressure;Samples;Min_cycle;Max_cycle;Signal;HPM_P1;HPM_P2
2022/01/08 00:01:29;;;;;;;8.00;2.20;;;1.60;99.90;;;;;;5054414;28;20051;-49
2022/01/08 00:03:54;;;;;;;11.90;2.88;;;1.70;99.90;;;;;;5054476;28;20128;-52
2022/01/08 00:06:20;;;;;;;12.48;2.03;;;1.70;99.90;;;;;;5054486;28;20048;-61
2022/01/08 00:08:48;;;;;;;9.10;2.03;;;1.70;99.90;;;;;;5054653;28;20045;-62
2022/01/08 00:11:18;;;;;;;9.27;2.00;;;1.70;99.90;;;;;;5054423;28;20052;-62
2022/01/08 00:13:44;;;;;;;8.55;3.47;;;1.70;99.90;;;;;;5054259;28;20045;-61
2022/01/08 00:16:10;;;;;;;6.40;1.70;;;1.70;99.90;;;;;;5053717;28;20049;-51
2022/01/08 00:18:35;;;;;;;6.90;1.95;;;1.60;99.90;;;;;;5071848;28;20048;-51
2022/01/08 00:21:01;;;;;;;7.03;1.75;;;1.60;99.90;;;;;;5073062;28;20385;-51
2022/01/08 00:23:27;;;;;;;7.68;1.75;;;1.70;99.90;;;;;;5074226;28;20557;-50
2022/01/08 00:25:53;;;;;;;5.43;1.83;;;1.70;99.90;;;;;;5074400;28;20043;-52
2022/01/08 00:28:19;;;;;;;9.02;1.80;;;1.60;99.90;;;;;;5072901;28;20044;-52
2022/01/08 00:30:45;;;;;;;7.88;1.83;;;1.70;99.90;;;;;;5073952;28;20072;-51
2022/01/08 00:33:11;;;;;;;6.32;2.08;;;1.60;99.90;;;;;;5073834;28;20071;-52
2022/01/08 00:35:37;;;;;;;11.27;2.42;;;1.70;99.90;;;;;;5074023;28;20126;-51
2022/01/08 00:38:03;;;;;;;5.88;1.67;;;1.70;99.90;;;;;;5073965;28;20036;-53
2022/01/08 00:40:29;;;;;;;5.45;1.50;;;1.60;99.90;;;;;;5073718;28;20071;-49
2022/01/08 00:42:55;;;;;;;7.30;1.70;;;1.50;99.90;;;;;;5073813;28;20036;-49
2022/01/08 00:45:21;;;;;;;6.90;1.85;;;1.60;99.90;;;;;;5073312;28;20044;-50
2022/01/08 00:47:47;;;;;;;11.48;1.95;;;1.50;99.90;;;;;;5073484;28;20090;-49
2022/01/08 00:50:12;;;;;;;5.47;1.80;;;1.50;99.90;;;;;;5062746;28;20045;-51
2022/01/08 00:52:42;;;;;;;5.45;1.83;;;1.50;99.90;;;;;;5053471;28;20516;-53
2022/01/08 00:55:09;;;;;;;7.10;2.08;;;1.40;99.90;;;;;;5053548;28;20041;-52
2022/01/08 00:57:35;;;;;;;5.38;1.90;;;1.40;99.90;;;;;;5053479;28;20458;-53
2022/01/08 01:00:01;;;;;;;8.45;2.10;;;1.50;99.90;;;;;;5053294;28;20120;-50
2022/01/08 01:02:26;;;;;;;7.63;2.00;;;1.50;99.90;;;;;;5053670;28;20083;-53
2022/01/08 01:04:52;;;;;;;7.63;2.25;;;1.50;99.90;;;;;;5053452;28;20091;-52
2022/01/08 01:07:18;;;;;;;7.18;1.90;;;1.60;99.90;;;;;;5053332;28;20119;-51
2022/01/08 01:09:44;;;;;;;5.97;2.00;;;1.50;99.90;;;;;;5051764;28;20120;-50
2022/01/08 01:12:09;;;;;;;10.05;2.60;;;1.50;99.90;;;;;;5053255;28;20040;-50
2022/01/08 01:14:35;;;;;;;7.97;2.30;;;1.60;99.90;;;;;;5052825;28;20063;-49
2022/01/08 01:17:02;;;;;;;8.02;2.40;;;1.60;99.90;;;;;;5056683;28;20443;-50
2022/01/08 01:19:27;;;;;;;7.15;2.67;;;1.60;99.90;;;;;;5073103;28;20045;-52
2022/01/08 01:21:54;;;;;;;10.45;2.25;;;1.50;99.90;;;;;;5072903;28;20063;-62
2022/01/08 01:24:23;;;;;;;6.55;2.30;;;1.60;99.90;;;;;;5072911;28;20209;-50
2022/01/08 01:27:17;;;;;;;6.47;2.35;;;1.50;99.90;;;;;;5072827;28;20123;-50
2022/01/08 01:48:23;;;;;;;9.43;2.60;;;1.40;99.90;;;;;;5072609;28;20047;-49
2022/01/08 01:50:49;;;;;;;9.25;2.75;;;1.60;99.90;;;;;;5056855;28;20533;-53
2022/01/08 01:53:15;;;;;;;6.63;2.60;;;1.50;99.90;;;;;;5052553;28;20075;-53
2022/01/08 01:55:45;;;;;;;6.85;2.60;;;1.50;99.90;;;;;;5052386;28;20575;-52
2022/01/08 01:58:12;;;;;;;7.72;2.45;;;1.40;99.90;;;;;;5051183;28;20119;-51
2022/01/08 02:00:38;;;;;;;8.45;2.92;;;1.40;99.90;;;;;;5052220;28;20385;-52
2022/01/08 02:03:04;;;;;;;9.20;2.30;;;1.40;99.90;;;;;;5052236;28;20075;-49
2022/01/08 02:05:29;;;;;;;10.07;2.70;;;1.50;99.90;;;;;;5052150;28;20053;-50
2022/01/08 02:07:56;;;;;;;7.55;2.47;;;1.40;99.90;;;;;;5050945;28;20041;-48
2022/01/08 02:10:25;;;;;;;8.02;2.25;;;1.40;99.90;;;;;;5052049;28;20093;-51
2022/01/08 02:12:51;;;;;;;10.65;2.80;;;1.50;99.90;;;;;;5052140;28;20032;-50
2022/01/08 02:15:17;;;;;;;9.05;2.53;;;1.60;99.90;;;;;;5051598;28;20475;-50
2022/01/08 02:17:42;;;;;;;9.35;2.20;;;1.40;99.90;;;;;;5063213;28;20087;-51
2022/01/08 02:20:09;;;;;;;7.25;2.00;;;1.50;99.90;;;;;;5071886;28;20048;-50
2022/01/08 02:22:35;;;;;;;6.07;1.90;;;1.50;99.90;;;;;;5072170;28;20055;-49
2022/01/08 02:25:01;;;;;;;6.95;2.00;;;1.50;99.90;;;;;;5072037;28;20045;-62
2022/01/08 02:27:26;;;;;;;6.80;1.98;;;1.50;99.90;;;;;;5071869;28;20412;-62
2022/01/08 02:29:53;;;;;;;8.15;2.00;;;1.60;99.90;;;;;;5071771;28;20040;-62
2022/01/08 02:32:25;;;;;;;6.47;1.88;;;1.60;99.90;;;;;;5072242;28;20045;-62
2022/01/08 02:34:51;;;;;;;;;;;1.70;99.90;;;;;;5054683;28;20384;-50
2022/01/08 02:37:19;;;;;;;8.93;1.80;;;1.60;99.90;;;;;;5071962;28;19917;-54
2022/01/08 02:39:48;;;;;;;5.38;1.80;;;1.70;99.90;;;;;;5074610;28;20507;-62
2022/01/08 02:42:17;;;;;;;9.02;1.55;;;1.80;99.90;;;;;;5075928;28;20403;-62
2022/01/08 02:44:44;;;;;;;5.18;1.38;;;1.70;99.90;;;;;;5076200;28;20041;-61
2022/01/08 02:47:12;;;;;;;4.55;1.30;;;1.80;99.90;;;;;;5075994;28;20041;-61
2022/01/08 02:49:38;;;;;;;7.18;2.03;;;1.80;99.90;;;;;;5069639;28;20041;-62
2022/01/08 02:52:04;;;;;;;6.35;1.33;;;1.60;99.90;;;;;;5055717;28;20040;-62
2022/01/08 02:54:30;;;;;;;5.18;1.30;;;1.60;99.90;;;;;;5055751;28;20116;-62
2022/01/08 02:56:56;;;;;;;8.70;1.58;;;1.60;99.90;;;;;;5055643;28;20136;-63
2022/01/08 02:59:22;;;;;;;8.27;1.63;;;1.50;99.90;;;;;;5055833;28;20090;-62
2022/01/08 03:01:48;;;;;;;5.18;1.52;;;1.50;99.90;;;;;;5055683;28;20049;-63
2022/01/08 03:04:14;;;;;;;6.85;1.60;;;1.40;99.90;;;;;;5054485;28;20041;-63
2022/01/08 03:06:40;;;;;;;5.40;1.73;;;1.30;99.90;;;;;;5055613;28;20102;-63
2022/01/08 03:09:06;;;;;;;5.82;1.60;;;1.40;99.90;;;;;;5055374;28;20056;-62
2022/01/08 03:11:32;;;;;;;5.88;1.40;;;1.40;99.90;;;;;;5054079;28;20037;-63
2022/01/08 03:13:58;;;;;;;8.35;1.58;;;1.20;99.90;;;;;;5055193;28;20033;-62
2022/01/08 03:16:24;;;;;;;8.15;2.63;;;1.20;99.90;;;;;;5055894;28;20041;-63
2022/01/08 03:18:50;;;;;;;7.65;1.30;;;1.30;99.90;;;;;;5075263;28;20041;-63
2022/01/08 03:21:20;;;;;;;5.35;1.40;;;1.20;99.90;;;;;;5075137;28;20048;-63
2022/01/08 03:23:56;;;;;;;6.90;1.45;;;1.20;99.90;;;;;;5075152;28;20049;-62
2022/01/08 03:26:24;;;;;;;3.72;1.20;;;1.20;99.90;;;;;;5075314;28;20044;-62
2022/01/08 03:28:50;;;;;;;6.22;1.23;;;1.10;99.90;;;;;;5074974;28;20130;-62
2022/01/08 03:31:16;;;;;;;6.15;1.25;;;1.20;99.90;;;;;;5074819;28;20497;-63
2022/01/08 03:33:43;;;;;;;3.47;0.80;;;1.10;99.90;;;;;;5075080;28;20036;-62
2022/01/08 03:36:10;;;;;;;4.85;1.27;;;1.10;99.90;;;;;;5075058;28;20055;-63
2022/01/08 03:38:35;;;;;;;4.38;0.90;;;1.20;99.90;;;;;;5074833;28;20036;-62
2022/01/08 03:41:01;;;;;;;5.22;1.42;;;1.10;99.90;;;;;;5075127;28;20045;-63
2022/01/08 03:43:27;;;;;;;8.82;1.50;;;1.10;99.90;;;;;;5074851;28;20041;-63
2022/01/08 03:45:52;;;;;;;6.75;1.30;;;1.00;99.90;;;;;;5074696;28;20076;-63
2022/01/08 03:48:28;;;;;;;4.60;1.15;;;1.00;99.90;;;;;;5074682;28;20036;-62
2022/01/08 03:50:55;;;;;;;5.70;1.17;;;1.00;99.90;;;;;;5056618;28;20427;-63
2022/01/08 03:53:22;;;;;;;4.75;1.20;;;1.10;99.90;;;;;;5054577;28;20037;-63
2022/01/08 03:55:48;;;;;;;7.45;1.27;;;1.00;99.90;;;;;;5054611;28;20041;-62
2022/01/08 03:58:14;;;;;;;5.90;1.23;;;1.00;99.90;;;;;;5054591;28;20037;-60
2022/01/08 04:00:39;;;;;;;5.28;1.10;;;1.10;99.90;;;;;;5054646;28;20093;-62
2022/01/08 04:03:05;;;;;;;7.20;1.50;;;1.00;99.90;;;;;;5054512;28;20041;-61
2022/01/08 04:05:31;;;;;;;5.05;1.20;;;1.00;99.90;;;;;;5054351;28;20183;-62
2022/01/08 04:07:57;;;;;;;6.85;1.10;;;1.10;99.90;;;;;;5053401;28;20055;-61
2022/01/08 04:10:22;;;;;;;4.18;1.23;;;1.10;99.90;;;;;;5054471;28;20060;-61
2022/01/08 04:12:54;;;;;;;8.48;1.23;;;1.00;99.90;;;;;;5054467;28;20039;-48
2022/01/08 04:15:43;;;;;;;9.65;1.48;;;1.20;99.90;;;;;;5054243;28;20053;-48
2022/01/08 04:18:06;;;;;;;5.75;1.10;;;1.10;99.90;;;;;;5068202;28;20083;-49
2022/01/08 04:20:37;;;;;;;6.88;1.30;;;1.20;99.90;;;;;;5074350;28;20121;-52
2022/01/08 04:23:03;;;;;;;7.78;1.40;;;1.20;99.90;;;;;;5074348;28;20715;-53
2022/01/08 04:25:30;;;;;;;8.77;1.15;;;1.30;99.90;;;;;;5072812;28;20281;-49
2022/01/08 04:27:56;;;;;;;9.45;1.58;;;1.30;99.90;;;;;;5074134;28;20117;-49
2022/01/08 04:30:21;;;;;;;5.22;1.65;;;1.40;99.90;;;;;;5073913;28;20063;-53
2022/01/08 04:32:47;;;;;;;4.80;1.13;;;1.40;99.90;;;;;;5073901;28;20032;-50
2022/01/08 04:35:13;;;;;;;7.32;1.30;;;1.40;99.90;;;;;;5074025;28;20040;-52
2022/01/08 04:37:39;;;;;;;9.48;1.33;;;1.60;99.90;;;;;;5073742;28;20036;-52
2022/01/08 04:40:05;;;;;;;8.38;1.58;;;1.60;99.90;;;;;;5073838;28;20067;-53
2022/01/08 04:42:31;;;;;;;5.53;1.40;;;1.60;99.90;;;;;;5073925;28;20040;-50
2022/01/08 04:44:57;;;;;;;7.30;1.60;;;1.70;99.90;;;;;;5072468;28;20118;-54
2022/01/08 04:47:22;;;;;;;6.05;1.38;;;1.70;99.90;;;;;;5073583;28;20041;-51
2022/01/08 04:49:48;;;;;;;9.38;1.98;;;1.60;99.90;;;;;;5066207;28;20397;-51
2022/01/08 04:52:14;;;;;;;5.97;1.35;;;1.80;99.90;;;;;;5053729;28;20033;-52
2022/01/08 04:54:39;;;;;;;7.93;1.63;;;1.70;99.90;;;;;;5053473;28;20040;-50
2022/01/08 04:57:05;;;;;;;7.95;2.28;;;1.80;99.90;;;;;;5053464;28;20032;-49
2022/01/08 04:59:31;;;;;;;7.75;1.92;;;1.80;99.90;;;;;;5053177;28;20045;-61
2022/01/08 05:01:56;;;;;;;12.05;1.85;;;1.90;99.90;;;;;;5052787;28;20036;-61
2022/01/08 05:04:22;;;;;;;6.88;1.40;;;1.80;99.90;;;;;;5053543;28;20063;-61
2022/01/08 05:06:47;;;;;;;7.43;1.23;;;1.90;99.90;;;;;;5053177;28;20041;-61
2022/01/08 05:09:13;;;;;;;5.60;1.23;;;1.80;99.90;;;;;;5053136;28;20048;-62
2022/01/08 05:11:39;;;;;;;4.80;1.20;;;1.70;99.90;;;;;;5053196;28;20037;-61
2022/01/08 05:14:06;;;;;;;7.63;1.30;;;1.70;99.90;;;;;;5035278;28;20049;-61
2022/01/08 05:16:31;;;;;;;6.47;1.20;;;1.70;99.90;;;;;;5055080;28;20049;-61
2022/01/08 05:18:59;;;;;;;5.65;1.27;;;1.70;99.90;;;;;;5073251;28;20040;-62
2022/01/08 05:21:27;;;;;;;3.70;1.20;;;1.80;99.90;;;;;;5072923;28;20493;-61
2022/01/08 05:23:54;;;;;;;7.10;1.25;;;1.70;99.90;;;;;;5073000;28;20044;-62
2022/01/08 05:26:20;;;;;;;6.32;1.20;;;1.70;99.90;;;;;;5072852;28;20052;-49
2022/01/08 05:28:46;;;;;;;7.00;1.30;;;1.60;99.90;;;;;;5072839;28;20040;-49
2022/01/08 05:31:15;;;;;;;6.15;1.10;;;1.70;99.90;;;;;;5071606;28;20442;-51
2022/01/08 05:33:41;;;;;;;5.32;1.08;;;1.60;99.90;;;;;;5072919;28;20114;-61
2022/01/08 05:36:06;;;;;;;6.72;1.40;;;1.60;99.90;;;;;;5072674;28;20032;-61
2022/01/08 05:38:32;;;;;;;4.97;1.10;;;1.50;99.90;;;;;;5072751;28;20037;-61
2022/01/08 05:40:58;;;;;;;6.13;1.60;;;1.60;99.90;;;;;;5072604;28;20032;-61
2022/01/08 05:43:23;;;;;;;5.63;1.17;;;1.50;99.90;;;;;;5072535;28;20094;-50
2022/01/08 05:45:49;;;;;;;5.68;1.30;;;1.60;99.90;;;;;;5072592;28;20384;-49
2022/01/08 05:48:15;;;;;;;6.53;1.20;;;1.60;99.90;;;;;;5071149;28;20373;-49
2022/01/08 05:50:41;;;;;;;7.80;1.98;;;1.50;99.90;;;;;;5057586;28;20052;-48
2022/01/08 05:53:06;;;;;;;9.43;1.42;;;1.60;99.90;;;;;;5052417;28;20033;-50
2022/01/08 05:55:32;;;;;;;6.10;1.58;;;1.60;99.90;;;;;;5052600;28;20080;-49
2022/01/08 05:57:58;;;;;;;5.53;1.13;;;1.60;99.90;;;;;;5052281;28;20090;-53
2022/01/08 06:00:23;;;;;;;11.38;1.55;;;1.60;99.90;;;;;;5052132;28;20072;-53
2022/01/08 06:02:49;;;;;;;10.10;1.95;;;1.50;99.90;;;;;;5051212;28;20120;-50
2022/01/08 06:05:15;;;;;;;6.75;1.38;;;1.50;99.90;;;;;;5050965;28;20420;-50
2022/01/08 06:07:41;;;;;;;14.05;1.48;;;1.50;99.90;;;;;;5052089;28;20082;-50
2022/01/08 06:10:07;;;;;;;5.95;1.40;;;1.50;99.90;;;;;;5052465;28;20044;-48
2022/01/08 06:12:32;;;;;;;7.53;1.20;;;1.50;99.90;;;;;;5051907;28;20040;-52
2022/01/08 06:14:58;;;;;;;9.00;1.58;;;1.40;99.90;;;;;;5051206;28;20132;-53
2022/01/08 06:17:24;;;;;;;6.32;1.20;;;1.30;99.90;;;;;;5061765;28;20171;-53
2022/01/08 06:19:50;;;;;;;7.68;1.45;;;1.30;99.90;;;;;;5072224;28;20037;-48
2022/01/08 06:22:15;;;;;;;4.38;1.23;;;1.30;99.90;;;;;;5070663;28;20047;-53
2022/01/08 06:24:41;;;;;;;10.52;1.65;;;1.10;99.90;;;;;;5072102;28;20036;-51
2022/01/08 06:27:07;;;;;;;6.47;1.65;;;1.20;99.90;;;;;;5072036;28;20044;-51
2022/01/08 06:29:33;;;;;;;5.97;1.48;;;1.10;99.90;;;;;;5070582;28;20055;-48
2022/01/08 06:31:59;;;;;;;7.00;1.80;;;1.10;99.90;;;;;;5071944;28;20459;-47
2022/01/08 06:34:24;;;;;;;7.35;1.80;;;1.00;99.90;;;;;;5070852;28;20032;-48
2022/01/08 06:36:50;;;;;;;10.18;2.05;;;1.00;99.90;;;;;;5071969;28;20390;-49
2022/01/08 06:39:18;;;;;;;10.85;2.00;;;0.90;99.90;;;;;;5070768;28;20075;-49
2022/01/08 06:41:43;;;;;;;8.80;2.58;;;0.90;99.90;;;;;;5071978;28;20090;-51
2022/01/08 06:44:10;;;;;;;8.00;2.10;;;1.00;99.90;;;;;;5071770;28;20044;-49
2022/01/08 06:46:35;;;;;;;7.90;2.90;;;1.00;99.90;;;;;;5070665;28;20079;-50
2022/01/08 06:49:01;;;;;;;8.68;2.67;;;1.00;99.90;;;;;;5067801;28;20072;-53
2022/01/08 06:51:27;;;;;;;11.55;2.55;;;0.90;99.90;;;;;;5050296;28;20083;-61
2022/01/08 06:53:53;;;;;;;11.23;2.83;;;0.90;99.90;;;;;;5050433;28;20049;-61
2022/01/08 06:56:19;;;;;;;9.05;3.00;;;0.90;99.90;;;;;;5050286;28;20439;-61
2022/01/08 06:58:46;;;;;;;11.98;3.05;;;0.70;99.90;;;;;;5050250;28;20044;-61
2022/01/08 07:01:11;;;;;;;10.82;3.60;;;0.80;99.90;;;;;;5050249;28;20098;-62
2022/01/08 07:03:37;;;;;;;8.65;2.90;;;0.80;99.90;;;;;;5050175;28;20493;-61
2022/01/08 07:06:04;;;;;;;8.60;2.60;;;0.80;99.90;;;;;;5050203;28;20091;-61
2022/01/08 07:08:30;;;;;;;8.35;3.05;;;0.80;99.90;;;;;;5050012;28;20063;-62
2022/01/08 07:10:56;;;;;;;7.53;3.25;;;0.80;99.90;;;;;;5049961;28;20055;-62
2022/01/08 07:13:21;;;;;;;9.93;3.30;;;0.80;99.90;;;;;;5050071;28;20123;-62
2022/01/08 07:15:47;;;;;;;9.85;3.10;;;0.80;99.90;;;;;;5049913;28;20056;-61
2022/01/08 07:18:13;;;;;;;11.10;3.25;;;0.80;99.90;;;;;;5064603;28;20484;-62
2022/01/08 07:20:38;;;;;;;13.73;3.80;;;0.80;99.90;;;;;;5069916;28;20090;-62
2022/01/08 07:23:05;;;;;;;8.38;3.55;;;0.80;99.90;;;;;;5069943;28;20111;-63
2022/01/08 07:25:30;;;;;;;12.27;3.97;;;0.80;99.90;;;;;;5071992;28;20048;-62
2022/01/08 07:27:56;;;;;;;14.85;4.07;;;0.70;99.90;;;;;;5073607;28;20048;-62
2022/01/08 07:30:22;;;;;;;9.73;3.88;;;0.70;99.90;;;;;;5073616;28;20090;-63
2022/01/08 07:32:51;;;;;;;11.63;3.70;;;0.80;99.90;;;;;;5073646;28;20127;-63
2022/01/08 07:35:19;;;;;;;9.65;4.07;;;0.70;99.90;;;;;;5073589;28;20408;-63
2022/01/08 07:37:45;;;;;;;10.57;4.32;;;0.90;99.90;;;;;;5073433;28;20043;-62
2022/01/08 07:40:13;;;;;;;9.93;4.05;;;0.80;99.90;;;;;;5073449;28;20495;-62
2022/01/08 07:42:39;;;;;;;14.48;4.68;;;0.70;99.90;;;;;;5073354;28;20396;-63
2022/01/08 07:45:09;;;;;;;12.60;4.50;;;0.80;99.90;;;;;;5073451;28;20036;-62
2022/01/08 07:47:35;;;;;;;13.35;4.45;;;0.70;99.90;;;;;;5073346;28;20047;-63
2022/01/08 07:50:02;;;;;;;17.30;4.72;;;0.70;99.90;;;;;;5063854;28;20056;-63
2022/01/08 07:52:28;;;;;;;17.58;4.90;;;0.80;99.90;;;;;;5053173;28;20033;-62
2022/01/08 07:54:54;;;;;;;14.55;4.68;;;0.80;99.90;;;;;;5053174;28;20037;-62
2022/01/08 07:57:20;;;;;;;10.90;4.60;;;0.80;99.90;;;;;;5053070;28;20071;-63
2022/01/08 07:59:45;;;;;;;15.20;4.45;;;0.80;99.90;;;;;;5052874;28;20041;-62
2022/01/08 08:02:11;;;;;;;12.38;4.68;;;0.80;99.90;;;;;;5052937;28;20123;-62
2022/01/08 08:04:37;;;;;;;11.40;4.53;;;0.80;99.90;;;;;;5053001;28;20497;-62
2022/01/08 08:07:03;;;;;;;13.43;4.35;;;0.70;99.90;;;;;;5053030;28;20056;-63
2022/01/08 08:09:29;;;;;;;12.85;4.30;;;0.80;99.90;;;;;;5052747;28;20047;-62
2022/01/08 08:11:54;;;;;;;14.40;5.65;;;0.80;99.90;;;;;;5052998;28;20244;-63
2022/01/08 08:14:20;;;;;;;13.35;5.13;;;0.90;99.90;;;;;;5052610;28;20037;-62
2022/01/08 08:16:46;;;;;;;16.52;4.28;;;0.90;99.90;;;;;;5054868;28;20509;-62
2022/01/08 08:19:12;;;;;;;12.23;4.90;;;0.80;99.90;;;;;;5072460;28;20052;-62
2022/01/08 08:21:37;;;;;;;14.43;4.65;;;0.90;99.90;;;;;;5072632;28;20071;-62
2022/01/08 08:24:06;;;;;;;13.55;4.90;;;0.90;99.90;;;;;;5072544;28;20048;-62
2022/01/08 08:26:32;;;;;;;13.70;4.63;;;1.00;99.90;;;;;;5072818;28;20447;-63
2022/01/08 08:28:58;;;;;;;16.83;4.50;;;1.00;99.90;;;;;;5071390;28;20040;-63
2022/01/08 08:31:24;;;;;;;17.63;6.15;;;1.20;99.90;;;;;;5072454;28;20502;-62
2022/01/08 08:33:50;;;;;;;14.05;4.63;;;1.20;99.90;;;;;;5071291;28;20052;-62
2022/01/08 08:36:15;;;;;;;15.63;6.47;;;1.30;99.90;;;;;;5071614;28;20488;-63
2022/01/08 08:38:41;;;;;;;11.93;4.65;;;1.20;99.90;;;;;;5072772;28;20365;-62
2022/01/08 08:41:09;;;;;;;13.60;5.10;;;1.20;99.90;;;;;;5072517;28;20053;-63
2022/01/08 08:43:34;;;;;;;16.73;5.05;;;1.30;99.90;;;;;;5072251;28;20498;-62
2022/01/08 08:46:00;;;;;;;12.07;4.97;;;1.30;99.90;;;;;;5072154;28;20166;-63
2022/01/08 08:48:26;;;;;;;12.32;4.28;;;1.30;99.90;;;;;;5058588;28;20503;-63
2022/01/08 08:50:52;;;;;;;15.30;4.07;;;1.30;99.90;;;;;;5066878;28;20053;-63
2022/01/08 08:53:17;;;;;;;10.27;3.72;;;1.30;99.90;;;;;;5071990;28;20041;-62
2022/01/08 08:55:43;;;;;;;18.58;5.15;;;1.40;99.90;;;;;;5072123;28;20041;-63
2022/01/08 08:58:09;;;;;;;11.98;4.43;;;1.40;99.90;;;;;;5071874;28;20037;-63
2022/01/08 09:00:35;;;;;;;13.80;4.07;;;1.40;99.90;;;;;;5071891;28;20469;-62
2022/01/08 09:03:00;;;;;;;14.77;6.07;;;1.50;99.90;;;;;;5071996;28;20389;-62
2022/01/08 09:05:26;;;;;;;12.55;4.07;;;1.50;99.90;;;;;;5071867;28;20251;-62
2022/01/08 09:07:52;;;;;;;9.02;3.90;;;1.50;99.90;;;;;;5071706;28;20051;-50
2022/01/08 09:10:23;;;;;;;13.98;4.10;;;1.50;99.90;;;;;;5071632;28;20136;-50
2022/01/08 09:12:48;;;;;;;9.88;4.18;;;1.60;99.90;;;;;;5071777;28;20111;-54
2022/01/08 09:15:15;;;;;;;11.43;4.45;;;1.60;99.90;;;;;;5071306;28;20580;-53
2022/01/08 09:17:41;;;;;;;9.00;4.50;;;1.70;99.90;;;;;;5071482;28;20119;-50
2022/01/08 09:20:09;;;;;;;11.38;4.20;;;1.80;99.90;;;;;;5067828;28;20052;-49
2022/01/08 09:22:35;;;;;;;13.43;4.63;;;1.90;99.90;;;;;;5071631;28;20048;-53
2022/01/08 09:25:01;;;;;;;13.55;4.97;;;1.80;99.90;;;;;;5071523;28;20079;-53
2022/01/08 09:27:27;;;;;;;9.85;4.35;;;1.90;99.90;;;;;;5071441;28;20098;-49
2022/01/08 09:29:54;;;;;;;13.27;5.07;;;1.90;99.90;;;;;;5071309;28;20054;-49
2022/01/08 09:32:23;;;;;;;10.68;4.03;;;2.00;99.90;;;;;;5066030;28;20404;-50
2022/01/08 09:34:49;;;;;;;14.07;4.40;;;2.00;99.90;;;;;;5060171;28;20074;-53
2022/01/08 09:37:15;;;;;;;15.52;5.00;;;2.00;99.90;;;;;;5058371;28;20029;-53
2022/01/08 09:39:41;;;;;;;10.77;3.97;;;2.00;99.90;;;;;;5060394;28;20051;-50
2022/01/08 09:42:10;;;;;;;13.13;4.15;;;2.10;99.90;;;;;;5067417;28;20505;-50
2022/01/08 09:44:43;;;;;;;11.43;4.85;;;2.00;99.90;;;;;;5071072;28;20320;-50
2022/01/08 09:47:08;;;;;;;11.35;4.43;;;2.20;99.90;;;;;;5071778;28;20044;-49
2022/01/08 09:49:35;;;;;;;12.55;4.32;;;2.10;99.90;;;;;;5065060;28;20396;-53
2022/01/08 09:52:03;;;;;;;17.33;4.90;;;2.20;99.90;;;;;;5051807;28;20037;-51
2022/01/08 09:54:29;;;;;;;12.55;4.63;;;2.20;99.90;;;;;;5052565;28;20433;-62
2022/01/08 09:56:55;;;;;;;13.02;4.97;;;2.30;99.90;;;;;;5052352;28;20163;-62
2022/01/08 09:59:21;;;;;;;13.20;4.32;;;2.30;99.90;;;;;;5052371;28;20061;-63
2022/01/08 10:01:55;;;;;;;10.50;4.50;;;2.30;99.90;;;;;;5052068;28;20056;-63
2022/01/08 10:04:28;;;;;;;13.70;4.63;;;2.40;99.90;;;;;;5052099;28;20520;-62
2022/01/08 10:07:17;;;;;;;12.85;4.28;;;2.40;99.90;;;;;;5052533;28;20037;-54
2022/01/08 10:10:16;;;;;;;10.65;4.13;;;2.40;99.90;;;;;;5052113;28;20040;-62
2022/01/08 10:12:58;;;;;;;14.48;4.70;;;2.40;99.90;;;;;;5052202;28;20048;-62
2022/01/08 10:18:33;;;;;;;13.35;4.43;;;2.40;99.90;;;;;;5068079;28;20119;-62
2022/01/08 10:21:13;;;;;;;12.93;4.25;;;2.40;99.90;;;;;;5069705;28;20047;-62
2022/01/08 10:23:46;;;;;;;15.38;4.22;;;2.40;99.90;;;;;;5072025;28;20036;-52
2022/01/08 10:26:14;;;;;;;12.07;3.72;;;2.40;99.90;;;;;;5072137;28;20393;-62
2022/01/08 10:28:46;;;;;;;13.70;3.53;;;2.60;99.90;;;;;;5071771;28;20397;-62
2022/01/08 10:31:14;;;;;;;12.52;4.00;;;2.60;99.90;;;;;;5071795;28;20041;-62
2022/01/08 10:33:41;;;;;;;18.20;5.28;;;2.60;99.90;;;;;;5072106;28;20037;-62
2022/01/08 10:36:07;;;;;;;10.25;4.35;;;2.60;99.90;;;;;;5072044;28;20044;-62
2022/01/08 10:38:34;;;;;;;13.05;3.65;;;2.70;99.90;;;;;;5071649;28;20036;-50
2022/01/08 10:41:01;;;;;;;13.40;3.97;;;2.70;99.90;;;;;;5071716;28;20044;-51
2022/01/08 10:43:30;;;;;;;17.88;4.25;;;2.70;99.90;;;;;;5071316;28;20037;-49
2022/01/08 10:46:07;;;;;;;17.80;4.32;;;2.80;99.90;;;;;;5063302;28;20112;-50
2022/01/08 10:48:33;;;;;;;14.35;4.15;;;2.80;99.90;;;;;;5052746;28;20052;-49
2022/01/08 10:51:36;;;;;;;15.10;4.72;;;2.80;99.90;;;;;;5067606;28;20128;-50
2022/01/08 10:54:11;;;;;;;13.60;4.13;;;2.80;99.90;;;;;;5049825;28;20055;-50
2022/01/08 10:56:45;;;;;;;13.50;4.60;;;2.80;99.90;;;;;;5064846;28;20041;-51
2022/01/08 10:59:14;;;;;;;15.43;3.83;;;2.80;99.90;;;;;;5060335;28;20485;-53
2022/01/08 11:01:39;;;;;;;10.57;3.65;;;2.90;99.90;;;;;;5066373;28;20051;-62
2022/01/08 11:04:11;;;;;;;13.02;4.50;;;2.90;99.90;;;;;;5069782;28;20040;-61
2022/01/08 11:06:53;;;;;;;13.68;4.45;;;2.90;99.90;;;;;;5075886;28;20393;-49
2022/01/08 11:09:20;;;;;;;12.25;4.15;;;2.90;99.90;;;;;;5068175;28;20096;-49
2022/01/08 11:11:49;;;;;;;11.93;4.97;;;3.00;99.90;;;;;;5074193;28;20051;-53
2022/01/08 11:14:24;;;;;;;10.30;5.57;;;3.00;99.90;;;;;;5075327;28;20087;-51
2022/01/08 11:16:54;;;;;;;17.75;5.20;;;3.10;99.90;;;;;;5074966;28;20041;-50
2022/01/08 11:19:20;;;;;;;13.23;4.75;;;3.10;99.90;;;;;;5075204;28;20082;-62
2022/01/08 11:21:48;;;;;;;9.13;4.35;;;3.10;99.90;;;;;;5075453;28;20051;-62
2022/01/08 11:24:17;;;;;;;13.00;4.80;;;3.10;99.90;;;;;;5075347;28;20044;-52
2022/01/08 11:26:46;;;;;;;12.15;5.30;;;3.20;99.90;;;;;;5075227;28;20040;-51
2022/01/08 11:29:13;;;;;;;16.20;6.72;;;3.20;99.90;;;;;;5075054;28;20049;-61
2022/01/08 11:31:40;;;;;;;15.13;5.82;;;3.20;99.90;;;;;;5075039;28;20044;-61
2022/01/08 11:34:10;;;;;;;16.08;7.68;;;3.30;99.90;;;;;;5075216;28;20181;-61
2022/01/08 11:36:37;;;;;;;13.35;5.82;;;3.30;99.90;;;;;;5075137;28;20068;-61
2022/01/08 11:39:02;;;;;;;15.60;6.47;;;3.40;99.90;;;;;;5074730;28;20319;-61
2022/01/08 11:41:31;;;;;;;13.70;6.07;;;3.40;99.90;;;;;;5074865;28;20140;-61
2022/01/08 11:43:57;;;;;;;15.05;6.78;;;3.40;99.90;;;;;;5073385;28;20048;-62
2022/01/08 11:46:24;;;;;;;14.15;7.22;;;3.40;99.90;;;;;;5074797;28;20071;-60
2022/01/08 11:48:51;;;;;;;19.13;7.35;;;3.40;99.90;;;;;;5074902;28;20101;-62
2022/01/08 11:51:19;;;;;;;13.68;6.30;;;3.40;99.90;;;;;;5053757;28;20045;-61
2022/01/08 11:53:48;;;;;;;13.63;6.88;;;3.50;99.90;;;;;;5054277;28;20051;-62
2022/01/08 11:56:25;;;;;;;15.45;6.65;;;3.40;99.90;;;;;;5054249;28;20048;-60
2022/01/08 11:59:09;;;;;;;14.07;5.85;;;3.50;99.90;;;;;;5055743;28;20047;-52
2022/01/08 12:01:36;;;;;;;13.20;5.80;;;3.50;99.90;;;;;;5066761;28;20545;-54
2022/01/08 12:04:03;;;;;;;15.05;5.95;;;3.50;99.90;;;;;;5063627;28;20547;-59
2022/01/08 12:06:33;;;;;;;13.77;6.85;;;3.50;99.90;;;;;;5066815;28;20111;-51
2022/01/08 12:09:20;;;;;;;15.18;6.43;;;3.50;99.90;;;;;;5058990;28;20119;-62
2022/01/08 12:11:48;;;;;;;16.27;7.25;;;3.50;99.90;;;;;;5053191;28;20048;-47
2022/01/08 12:14:15;;;;;;;14.38;6.03;;;3.50;99.90;;;;;;5054338;28;20112;-63
2022/01/08 12:16:57;;;;;;;13.70;6.78;;;3.50;99.90;;;;;;5057390;28;20049;-62
2022/01/08 12:19:28;;;;;;;;;;;3.40;99.90;;;;;;5074560;28;20585;-62
2022/01/08 12:21:54;;;;;;;12.13;5.55;;;3.50;99.90;;;;;;5074361;28;19943;-62
2022/01/08 12:24:26;;;;;;;12.15;5.53;;;3.50;99.90;;;;;;5074025;28;20040;-62
2022/01/08 12:26:53;;;;;;;13.68;6.78;;;3.60;99.90;;;;;;5072949;28;20451;-50
2022/01/08 12:29:36;;;;;;;14.55;6.25;;;3.50;99.90;;;;;;5072862;28;20139;-48
2022/01/08 12:32:36;;;;;;;10.68;6.32;;;3.60;99.90;;;;;;5074272;28;20509;-50
2022/01/08 12:35:54;;;;;;;15.00;7.40;;;3.60;99.90;;;;;;5073922;28;20040;-48
2022/01/08 12:38:24;;;;;;;17.63;7.47;;;3.50;99.90;;;;;;5070561;28;20040;-50
2022/01/08 12:40:51;;;;;;;16.85;8.45;;;3.60;99.90;;;;;;5074066;28;20042;-62
2022/01/08 12:43:37;;;;;;;17.33;8.75;;;3.60;99.90;;;;;;5072612;28;20055;-62
2022/01/08 12:46:24;;;;;;;14.38;8.30;;;3.60;99.90;;;;;;5073556;28;20143;-61
2022/01/08 12:49:12;;;;;;;19.05;9.20;;;3.60;99.90;;;;;;5073543;28;20047;-62
2022/01/08 12:51:52;;;;;;;20.25;9.60;;;3.60;99.90;;;;;;5053616;28;20045;-62
2022/01/08 12:54:21;;;;;;;20.52;9.32;;;3.60;99.90;;;;;;5053533;28;20071;-49
2022/01/08 12:56:51;;;;;;;18.83;10.80;;;3.60;99.90;;;;;;5053379;28;20044;-47
2022/01/08 12:59:18;;;;;;;17.75;9.55;;;3.60;99.90;;;;;;5053475;28;20044;-49
2022/01/08 13:01:49;;;;;;;17.50;10.68;;;3.60;99.90;;;;;;5053401;28;20447;-48
2022/01/08 13:04:16;;;;;;;20.23;10.57;;;3.60;99.90;;;;;;5053518;28;20041;-49
2022/01/08 13:06:43;;;;;;;16.35;9.73;;;3.60;99.90;;;;;;5053368;28;20084;-58
2022/01/08 13:09:09;;;;;;;18.30;10.60;;;3.70;99.90;;;;;;5053150;28;20492;-46
2022/01/08 13:11:37;;;;;;;17.30;11.10;;;3.60;99.90;;;;;;5053112;28;20045;-59
2022/01/08 13:14:09;;;;;;;18.77;11.80;;;3.70;99.90;;;;;;5053378;28;20099;-59
2022/01/08 13:16:41;;;;;;;17.67;11.50;;;3.60;99.90;;;;;;5054519;28;20492;-58
2022/01/08 13:19:08;;;;;;;15.98;11.45;;;3.60;99.90;;;;;;5073088;28;20087;-49